Time;durP1;ratioP1;P1;durP2;ratioP2;P2;SDS_P1;SDS_P2;PMS_P1;PMS_P2;Temp;Humidity;BMP_temperature;BMP_pressure;BME280_temperature;BME280_humidity;BME280_pressure;Samples;Min_cycle;Max_cycle;Signal;HPM_P1;HPM_P2
2021/12/09 00:01:01;;;;;;;21.93;10.27;;;2.20;99.90;;;;;;5074502;28;20192;-82
2021/12/09 00:03:34;;;;;;;18.67;10.13;;;2.20;99.90;;;;;;5091752;28;20223;-81
2021/12/09 00:06:04;;;;;;;23.93;10.70;;;2.10;99.90;;;;;;5050821;28;20230;-82
2021/12/09 00:08:31;;;;;;;20.90;10.10;;;2.20;99.90;;;;;;5075574;28;20237;-83
2021/12/09 00:11:01;;;;;;;22.07;11.53;;;2.20;99.90;;;;;;5102096;28;20284;-83
2021/12/09 00:13:28;;;;;;;20.03;9.33;;;2.20;99.90;;;;;;5091367;28;20628;-82
2021/12/09 00:15:56;;;;;;;20.03;10.17;;;2.10;99.90;;;;;;5090894;28;20207;-82
2021/12/09 00:18:24;;;;;;;23.83;11.00;;;2.10;99.90;;;;;;5072958;28;20220;-83
2021/12/09 00:20:52;;;;;;;19.43;10.40;;;2.10;99.90;;;;;;5066429;28;20288;-82
2021/12/09 00:23:19;;;;;;;21.73;13.10;;;2.10;99.90;;;;;;5072699;28;20785;-81
2021/12/09 00:25:46;;;;;;;25.77;11.87;;;2.10;99.90;;;;;;5090765;28;20311;-81
2021/12/09 00:28:13;;;;;;;17.77;10.93;;;2.10;99.90;;;;;;5091328;28;20208;-82
2021/12/09 00:30:40;;;;;;;19.63;10.70;;;2.10;99.90;;;;;;5089774;28;20236;-82
2021/12/09 00:33:09;;;;;;;29.03;11.83;;;2.10;99.90;;;;;;5072952;28;20306;-83
2021/12/09 00:35:47;;;;;;;21.00;11.17;;;2.10;99.90;;;;;;5089907;28;20214;-83
2021/12/09 00:38:21;;;;;;;25.27;12.20;;;2.00;99.90;;;;;;5083693;28;20257;-82
2021/12/09 00:40:49;;;;;;;23.20;11.27;;;2.00;99.90;;;;;;5088192;28;20467;-81
2021/12/09 00:43:18;;;;;;;22.40;11.63;;;2.00;99.90;;;;;;5090637;28;20257;-83
2021/12/09 00:45:45;;;;;;;25.37;12.13;;;2.00;99.90;;;;;;5072204;28;20236;-83
2021/12/09 00:48:12;;;;;;;24.03;11.80;;;1.90;99.90;;;;;;5090419;28;20234;-83
2021/12/09 00:50:40;;;;;;;34.10;12.60;;;1.90;99.90;;;;;;5077099;28;20275;-82
2021/12/09 00:53:07;;;;;;;27.07;12.07;;;1.90;99.90;;;;;;5090355;28;20288;-82
2021/12/09 00:55:33;;;;;;;27.57;12.97;;;1.80;99.90;;;;;;5077695;28;20319;-82
2021/12/09 00:58:00;;;;;;;30.60;13.07;;;1.80;99.90;;;;;;5070023;28;20208;-81
2021/12/09 01:00:28;;;;;;;26.40;11.30;;;1.80;99.90;;;;;;5088915;28;20239;-82
2021/12/09 01:02:55;;;;;;;23.67;11.03;;;1.80;99.90;;;;;;5091066;28;20219;-81
2021/12/09 01:05:22;;;;;;;26.90;12.27;;;1.80;99.90;;;;;;5090131;28;20230;-83
2021/12/09 01:07:49;;;;;;;25.40;12.50;;;1.90;99.90;;;;;;5071921;28;20223;-81
2021/12/09 01:10:17;;;;;;;23.70;11.33;;;1.70;99.90;;;;;;5072196;28;20231;-81
2021/12/09 01:12:45;;;;;;;24.97;10.67;;;1.70;99.90;;;;;;5088767;28;20287;-82
2021/12/09 01:15:16;;;;;;;27.23;12.87;;;1.70;99.90;;;;;;5071724;28;20199;-82
2021/12/09 01:17:44;;;;;;;30.93;13.77;;;1.70;99.90;;;;;;5089047;28;20231;-83
2021/12/09 01:20:14;;;;;;;24.67;11.87;;;1.70;99.90;;;;;;5087927;28;20210;-82
2021/12/09 01:22:43;;;;;;;24.87;12.70;;;1.70;99.90;;;;;;5089534;28;20739;-82
2021/12/09 01:25:13;;;;;;;30.10;12.97;;;1.70;99.90;;;;;;5070023;28;20310;-82
2021/12/09 01:27:44;;;;;;;26.03;12.73;;;1.70;99.90;;;;;;5071505;28;20227;-83
2021/12/09 01:30:15;;;;;;;30.17;12.00;;;1.70;99.90;;;;;;5072184;28;20200;-83
2021/12/09 01:32:51;;;;;;;36.43;13.27;;;1.70;99.90;;;;;;5089697;28;20571;-81
2021/12/09 01:35:21;;;;;;;29.10;12.90;;;1.70;99.90;;;;;;5090239;28;20522;-81
2021/12/09 01:37:54;;;;;;;28.73;13.40;;;1.70;99.90;;;;;;5091135;28;20711;-82
2021/12/09 01:40:23;;;;;;;24.83;13.40;;;1.60;99.90;;;;;;5071098;28;20253;-81
2021/12/09 01:42:54;;;;;;;24.30;13.70;;;1.60;99.90;;;;;;5087321;28;20223;-81
2021/12/09 01:45:23;;;;;;;31.90;14.27;;;1.60;99.90;;;;;;5086224;28;20342;-82
2021/12/09 01:47:50;;;;;;;29.53;13.53;;;1.60;99.90;;;;;;5094588;28;20582;-81
2021/12/09 01:50:17;;;;;;;28.67;13.03;;;1.60;99.90;;;;;;5088821;28;20237;-81
2021/12/09 01:52:44;;;;;;;26.07;12.90;;;1.60;99.90;;;;;;5088076;28;20234;-81
2021/12/09 01:55:13;;;;;;;24.63;13.27;;;1.60;99.90;;;;;;5050616;28;20240;-81
2021/12/09 01:57:40;;;;;;;24.40;13.30;;;1.60;99.90;;;;;;5068924;28;20735;-81
2021/12/09 02:00:14;;;;;;;26.43;12.93;;;1.60;99.90;;;;;;5062091;28;20244;-81
2021/12/09 02:02:41;;;;;;;37.17;14.57;;;1.50;99.90;;;;;;5065623;28;20295;-81
2021/12/09 02:05:26;;;;;;;29.03;13.67;;;1.50;99.90;;;;;;5060364;28;20228;-81
2021/12/09 02:07:53;;;;;;;23.93;12.70;;;1.50;99.90;;;;;;5067214;28;20204;-83
2021/12/09 02:10:20;;;;;;;23.20;12.43;;;1.50;99.90;;;;;;5068428;28;20668;-79
2021/12/09 02:12:49;;;;;;;27.27;13.50;;;1.50;99.90;;;;;;5063723;28;20207;-80
2021/12/09 02:15:20;;;;;;;29.23;13.73;;;1.40;99.90;;;;;;5068890;28;20287;-81
2021/12/09 02:17:48;;;;;;;29.47;13.60;;;1.40;99.90;;;;;;5063689;28;20205;-81
2021/12/09 02:20:15;;;;;;;32.03;14.40;;;1.40;99.90;;;;;;5063936;28;20203;-81
2021/12/09 02:22:46;;;;;;;28.83;14.00;;;1.40;99.90;;;;;;5068873;28;20292;-81
2021/12/09 02:25:17;;;;;;;29.57;13.13;;;1.40;99.90;;;;;;5068584;28;20325;-82
2021/12/09 02:27:45;;;;;;;26.07;13.13;;;1.40;99.90;;;;;;5066463;28;20296;-81
2021/12/09 02:30:13;;;;;;;31.30;13.90;;;1.40;99.90;;;;;;5068460;28;20271;-80
2021/12/09 02:32:40;;;;;;;28.43;14.00;;;1.40;99.90;;;;;;5068301;28;20258;-81
2021/12/09 02:35:08;;;;;;;32.27;13.77;;;1.40;99.90;;;;;;5068513;28;20309;-82
2021/12/09 02:37:35;;;;;;;30.23;13.57;;;1.40;99.90;;;;;;5068704;28;20279;-81
2021/12/09 02:40:06;;;;;;;32.83;14.80;;;1.40;99.90;;;;;;5068094;28;20223;-81
2021/12/09 02:42:34;;;;;;;36.73;14.43;;;1.30;99.90;;;;;;5055203;28;20215;-81
2021/12/09 02:45:06;;;;;;;31.37;14.73;;;1.30;99.90;;;;;;5066664;28;20205;-82
2021/12/09 02:47:33;;;;;;;26.97;13.67;;;1.30;99.90;;;;;;5063405;28;20217;-81
2021/12/09 02:50:05;;;;;;;29.93;14.13;;;1.30;99.90;;;;;;5068838;28;20205;-80
2021/12/09 02:52:32;;;;;;;33.13;14.33;;;1.30;99.90;;;;;;5069187;28;20241;-81
2021/12/09 02:54:59;;;;;;;26.43;14.03;;;1.30;99.90;;;;;;5077591;28;20224;-81
2021/12/09 02:57:25;;;;;;;27.37;14.17;;;1.30;99.90;;;;;;5082033;28;20326;-80
2021/12/09 02:59:52;;;;;;;28.33;13.83;;;1.30;99.90;;;;;;5088762;28;20231;-81
2021/12/09 03:02:20;;;;;;;27.60;14.60;;;1.30;99.90;;;;;;5088384;28;20224;-81
2021/12/09 03:04:51;;;;;;;31.47;13.83;;;1.20;99.90;;;;;;5087226;28;20223;-81
2021/12/09 03:07:38;;;;;;;32.97;14.57;;;1.30;99.90;;;;;;5088771;28;20257;-81
2021/12/09 03:10:20;;;;;;;39.20;14.97;;;1.30;99.90;;;;;;5088246;28;20253;-81
2021/12/09 03:12:49;;;;;;;34.07;14.47;;;1.20;99.90;;;;;;5081944;28;20261;-79
2021/12/09 03:15:17;;;;;;;28.37;14.13;;;1.20;99.90;;;;;;5072586;28;20239;-80
2021/12/09 03:17:46;;;;;;;37.63;15.03;;;1.20;99.90;;;;;;5091407;28;20389;-81
2021/12/09 03:20:15;;;;;;;30.63;14.37;;;1.20;99.90;;;;;;5087347;28;20291;-81
2021/12/09 03:22:49;;;;;;;32.07;14.23;;;1.20;99.90;;;;;;5059811;28;20731;-81
2021/12/09 03:25:17;;;;;;;32.77;13.83;;;1.20;99.90;;;;;;5098374;28;20279;-81
2021/12/09 03:27:44;;;;;;;35.17;16.00;;;1.20;99.90;;;;;;5106358;28;20630;-80
2021/12/09 03:30:14;;;;;;;33.77;15.93;;;1.20;99.90;;;;;;5091901;28;20199;-81
2021/12/09 03:32:41;;;;;;;28.07;13.80;;;1.20;99.90;;;;;;5099774;28;20216;-82
2021/12/09 03:35:11;;;;;;;37.60;13.87;;;1.20;99.90;;;;;;5067707;28;20272;-82
2021/12/09 03:37:39;;;;;;;32.73;15.47;;;1.10;99.90;;;;;;5086790;28;20208;-81
2021/12/09 03:40:07;;;;;;;37.03;15.57;;;1.10;99.90;;;;;;5055258;28;20656;-81
2021/12/09 03:42:35;;;;;;;32.70;15.70;;;1.10;99.90;;;;;;5060177;28;20276;-80
2021/12/09 03:45:03;;;;;;;31.00;14.77;;;1.10;99.90;;;;;;5086834;28;20310;-82
2021/12/09 03:47:31;;;;;;;26.07;14.10;;;1.10;99.90;;;;;;5090252;28;20229;-80
2021/12/09 03:49:59;;;;;;;28.00;14.93;;;1.10;99.90;;;;;;5081595;28;20702;-81
2021/12/09 03:52:28;;;;;;;31.47;15.43;;;1.00;99.90;;;;;;5074058;28;20218;-81
2021/12/09 03:54:58;;;;;;;24.27;14.80;;;1.10;99.90;;;;;;5091527;28;20640;-81
2021/12/09 03:57:25;;;;;;;35.33;15.43;;;1.00;99.90;;;;;;5072945;28;20242;-81
2021/12/09 03:59:53;;;;;;;34.77;15.53;;;1.10;99.90;;;;;;5091416;28;20314;-80
2021/12/09 04:02:20;;;;;;;36.07;15.97;;;1.00;99.90;;;;;;5090424;28;20675;-81
2021/12/09 04:04:47;;;;;;;28.33;15.10;;;1.10;99.90;;;;;;5090986;28;20210;-80
2021/12/09 04:07:16;;;;;;;32.60;14.70;;;1.00;99.90;;;;;;5071594;28;20360;-81
2021/12/09 04:09:43;;;;;;;30.60;14.13;;;1.00;99.90;;;;;;5074674;28;20209;-81
2021/12/09 04:12:11;;;;;;;33.57;14.97;;;1.00;99.90;;;;;;5085917;28;21027;-81
2021/12/09 04:14:38;;;;;;;36.20;15.77;;;1.00;99.90;;;;;;5075254;28;20278;-80
2021/12/09 04:17:05;;;;;;;39.43;15.63;;;1.00;99.90;;;;;;5090510;28;20224;-81
2021/12/09 04:19:32;;;;;;;31.27;15.00;;;1.00;99.90;;;;;;5096733;28;20235;-81
2021/12/09 04:21:59;;;;;;;41.50;14.30;;;1.00;99.90;;;;;;5095114;28;20706;-81
2021/12/09 04:24:26;;;;;;;34.17;14.07;;;1.00;99.90;;;;;;5071991;28;20656;-80
2021/12/09 04:26:53;;;;;;;29.47;13.90;;;1.00;99.90;;;;;;5082342;28;20826;-81
2021/12/09 04:29:20;;;;;;;30.63;14.50;;;1.00;99.90;;;;;;5089079;28;20931;-82
2021/12/09 04:31:49;;;;;;;32.50;14.43;;;1.00;99.90;;;;;;5090380;28;20208;-80
2021/12/09 04:34:19;;;;;;;33.33;14.50;;;1.00;99.90;;;;;;5095190;28;20355;-81
2021/12/09 04:36:46;;;;;;;24.50;13.60;;;1.00;99.90;;;;;;5076098;28;20210;-80
2021/12/09 04:39:13;;;;;;;32.63;14.57;;;1.00;99.90;;;;;;5091406;28;20260;-79
2021/12/09 04:41:40;;;;;;;36.03;15.83;;;1.00;99.90;;;;;;5072452;28;20547;-81
2021/12/09 04:44:07;;;;;;;37.50;14.83;;;1.10;99.90;;;;;;5090285;28;20199;-80
2021/12/09 04:46:35;;;;;;;34.70;13.83;;;1.00;99.90;;;;;;5089874;28;20242;-80
2021/12/09 04:49:07;;;;;;;27.90;13.63;;;1.00;99.90;;;;;;5089734;28;20314;-81
2021/12/09 04:51:36;;;;;;;37.43;15.17;;;1.00;99.90;;;;;;5089793;28;20310;-80
2021/12/09 04:54:04;;;;;;;37.00;14.23;;;1.10;99.90;;;;;;5091335;28;20199;-81
2021/12/09 04:56:33;;;;;;;29.33;13.40;;;1.10;99.90;;;;;;5091954;28;20240;-81
2021/12/09 04:59:00;;;;;;;39.80;12.90;;;1.10;99.90;;;;;;5090236;28;20249;-80
2021/12/09 05:01:27;;;;;;;40.90;14.53;;;1.10;99.90;;;;;;5061444;28;20246;-81
2021/12/09 05:03:54;;;;;;;30.67;13.90;;;1.10;99.90;;;;;;5052094;28;20228;-80
2021/12/09 05:06:22;;;;;;;29.37;12.87;;;1.10;99.90;;;;;;5064502;28;20230;-81
2021/12/09 05:08:49;;;;;;;29.13;12.87;;;1.10;99.90;;;;;;5068953;28;20188;-80
2021/12/09 05:11:43;;;;;;;35.77;14.83;;;1.20;99.90;;;;;;5081725;28;20217;-81
2021/12/09 05:14:10;;;;;;;34.83;14.50;;;1.30;99.90;;;;;;5085362;28;20199;-80
2021/12/09 05:16:37;;;;;;;32.73;14.53;;;1.20;99.90;;;;;;5089591;28;20648;-80
2021/12/09 05:19:04;;;;;;;34.27;14.13;;;1.30;99.90;;;;;;5089940;28;20216;-80
2021/12/09 05:21:37;;;;;;;37.57;13.93;;;1.30;99.90;;;;;;5089636;28;20295;-81
2021/12/09 05:24:10;;;;;;;36.87;13.57;;;1.40;99.90;;;;;;5089676;28;20294;-81
2021/12/09 05:26:47;;;;;;;38.30;15.07;;;1.40;99.90;;;;;;5089413;28;20215;-81
2021/12/09 05:29:16;;;;;;;43.53;14.80;;;1.40;99.90;;;;;;5089671;28;20671;-81
2021/12/09 05:34:51;;;;;;;37.90;14.03;;;1.40;99.90;;;;;;5069729;28;20204;-81
2021/12/09 05:37:22;;;;;;;25.83;12.03;;;1.40;99.90;;;;;;5083213;28;20211;-82
2021/12/09 05:39:52;;;;;;;39.37;14.60;;;1.50;99.90;;;;;;5089448;28;20280;-81
2021/12/09 05:42:20;;;;;;;32.93;13.63;;;1.50;99.90;;;;;;5077923;28;20204;-82
2021/12/09 05:44:48;;;;;;;29.43;13.53;;;1.50;99.90;;;;;;5051150;28;20605;-82
2021/12/09 05:47:15;;;;;;;33.43;12.80;;;1.50;99.90;;;;;;5075836;28;20315;-81
2021/12/09 05:49:45;;;;;;;35.20;13.57;;;1.50;99.90;;;;;;5086804;28;20199;-81
2021/12/09 05:52:13;;;;;;;34.73;14.37;;;1.50;99.90;;;;;;5068904;28;20216;-81
2021/12/09 05:54:40;;;;;;;36.17;13.77;;;1.50;99.90;;;;;;5061745;28;20303;-81
2021/12/09 05:57:08;;;;;;;40.30;14.00;;;1.60;99.90;;;;;;5069646;28;20233;-80
2021/12/09 05:59:40;;;;;;;33.33;13.90;;;1.60;99.90;;;;;;5063579;28;20201;-82
2021/12/09 06:02:10;;;;;;;26.67;12.00;;;1.60;99.90;;;;;;5064639;28;20208;-81
2021/12/09 06:04:37;;;;;;;32.17;13.10;;;1.60;99.90;;;;;;5069013;28;20269;-82
2021/12/09 06:07:05;;;;;;;29.97;12.57;;;1.60;99.90;;;;;;5067532;28;20232;-79
2021/12/09 06:09:32;;;;;;;37.77;14.50;;;1.60;99.90;;;;;;5070004;28;20196;-80
2021/12/09 06:11:59;;;;;;;25.77;12.37;;;1.60;99.90;;;;;;5066342;28;20652;-80
2021/12/09 06:14:26;;;;;;;27.57;12.93;;;1.60;99.90;;;;;;5075945;28;20721;-81
2021/12/09 06:16:53;;;;;;;34.17;12.40;;;1.60;99.90;;;;;;5072270;28;20698;-80
2021/12/09 06:19:21;;;;;;;23.03;12.17;;;1.60;99.90;;;;;;5070412;28;20204;-80
2021/12/09 06:21:48;;;;;;;26.13;11.97;;;1.60;99.90;;;;;;5069320;28;20189;-81
2021/12/09 06:24:21;;;;;;;22.13;11.77;;;1.50;99.90;;;;;;5067544;28;20262;-82
2021/12/09 06:26:48;;;;;;;32.87;12.40;;;1.50;99.90;;;;;;5067000;28;20232;-81
2021/12/09 06:29:15;;;;;;;32.50;12.23;;;1.50;99.90;;;;;;5068930;28;20215;-82
2021/12/09 06:31:42;;;;;;;24.30;11.77;;;1.50;99.90;;;;;;5062095;28;20236;-81
2021/12/09 06:34:11;;;;;;;25.27;11.30;;;1.50;99.90;;;;;;5071042;28;20228;-80
2021/12/09 06:36:40;;;;;;;26.13;11.67;;;1.40;99.90;;;;;;5070178;28;20255;-80
2021/12/09 06:39:07;;;;;;;26.57;11.43;;;1.40;99.90;;;;;;5069793;28;20204;-81
2021/12/09 06:41:34;;;;;;;28.50;11.23;;;1.40;99.90;;;;;;5068867;28;20218;-80
2021/12/09 06:44:02;;;;;;;30.73;12.57;;;1.40;99.90;;;;;;5068543;28;20235;-80
2021/12/09 06:46:30;;;;;;;27.07;11.27;;;1.40;99.90;;;;;;5061567;28;20227;-81
2021/12/09 06:48:57;;;;;;;32.43;11.10;;;1.40;99.90;;;;;;5069097;28;20261;-81
2021/12/09 06:51:24;;;;;;;29.37;11.80;;;1.50;99.90;;;;;;5072447;28;20315;-79
2021/12/09 06:53:51;;;;;;;26.40;11.70;;;1.40;99.90;;;;;;5070931;28;20200;-81
2021/12/09 06:56:19;;;;;;;28.63;10.60;;;1.40;99.90;;;;;;5092597;28;20246;-80
2021/12/09 06:58:46;;;;;;;24.30;11.70;;;1.40;99.90;;;;;;5074332;28;20223;-81
2021/12/09 07:01:13;;;;;;;24.50;11.03;;;1.40;99.90;;;;;;5091772;28;20205;-80
2021/12/09 07:03:41;;;;;;;30.47;11.80;;;1.40;99.90;;;;;;5090361;28;20276;-80
2021/12/09 07:06:11;;;;;;;29.00;11.50;;;1.40;99.90;;;;;;5090103;28;20219;-81
2021/12/09 07:08:45;;;;;;;31.20;11.63;;;1.40;99.90;;;;;;5091141;28;20246;-80
2021/12/09 07:11:19;;;;;;;28.57;10.73;;;1.40;99.90;;;;;;5077875;28;20380;-81
2021/12/09 07:13:46;;;;;;;21.90;10.37;;;1.40;99.90;;;;;;5098090;28;20216;-79
2021/12/09 07:16:14;;;;;;;35.55;16.40;;;1.40;99.90;;;;;;5092981;28;20444;-80
2021/12/09 07:18:41;;;;;;;30.37;12.60;;;1.50;99.90;;;;;;5091935;28;20240;-80
2021/12/09 07:21:08;;;;;;;21.90;10.73;;;1.50;99.90;;;;;;5092353;28;20285;-80
2021/12/09 07:23:35;;;;;;;32.63;10.77;;;1.40;99.90;;;;;;5091917;28;20714;-80
2021/12/09 07:26:02;;;;;;;25.63;10.37;;;1.40;99.90;;;;;;5074209;28;20292;-81
2021/12/09 07:28:29;;;;;;;22.07;10.03;;;1.40;99.90;;;;;;5089615;28;20211;-81
2021/12/09 07:30:56;;;;;;;28.57;10.50;;;1.40;99.90;;;;;;5084798;28;20206;-82
2021/12/09 07:33:23;;;;;;;23.23;9.37;;;1.30;99.90;;;;;;5082027;28;20780;-77
2021/12/09 07:35:50;;;;;;;20.47;11.37;;;1.30;99.90;;;;;;5078455;28;20196;-79
2021/12/09 07:38:20;;;;;;;28.37;10.40;;;1.30;99.90;;;;;;5060843;28;20228;-79
2021/12/09 07:40:46;;;;;;;25.30;11.67;;;1.30;99.90;;;;;;5069947;28;20603;-78
2021/12/09 07:43:13;;;;;;;27.90;11.60;;;1.30;99.90;;;;;;5085990;28;20328;-78
2021/12/09 07:45:40;;;;;;;30.90;11.23;;;1.30;99.90;;;;;;5089400;28;20298;-78
2021/12/09 07:48:07;;;;;;;24.93;10.67;;;1.30;99.90;;;;;;5077691;28;20235;-79
2021/12/09 07:50:35;;;;;;;31.17;11.70;;;1.30;99.90;;;;;;5089351;28;20748;-81
2021/12/09 07:53:02;;;;;;;25.73;11.30;;;1.30;99.90;;;;;;5085620;28;20303;-79
2021/12/09 07:55:32;;;;;;;28.07;11.53;;;1.30;99.90;;;;;;5088432;28;20314;-80
2021/12/09 07:57:59;;;;;;;26.17;11.23;;;1.30;99.90;;;;;;5082225;28;20231;-79
2021/12/09 08:00:32;;;;;;;25.17;10.70;;;1.30;99.90;;;;;;5081828;28;20195;-79
2021/12/09 08:03:00;;;;;;;25.87;10.80;;;1.30;99.90;;;;;;5079720;28;20247;-80
2021/12/09 08:05:29;;;;;;;23.93;11.17;;;1.30;99.90;;;;;;5085098;28;20210;-80
2021/12/09 08:07:56;;;;;;;29.73;12.53;;;1.30;99.90;;;;;;5083272;28;20270;-79
2021/12/09 08:10:24;;;;;;;29.60;12.53;;;1.30;99.90;;;;;;5077061;28;20628;-78
2021/12/09 08:12:51;;;;;;;27.90;12.40;;;1.30;99.90;;;;;;5081934;28;20705;-79
2021/12/09 08:15:39;;;;;;;30.17;11.80;;;1.30;99.90;;;;;;5087509;28;20203;-78
2021/12/09 08:20:47;;;;;;;29.53;12.03;;;1.30;99.90;;;;;;5083029;28;20231;-76
2021/12/09 08:23:15;;;;;;;26.90;11.20;;;1.30;99.90;;;;;;5069726;28;20347;-78
2021/12/09 08:25:43;;;;;;;32.40;12.03;;;1.40;99.90;;;;;;5066317;28;20208;-79
2021/12/09 08:28:11;;;;;;;33.90;12.17;;;1.40;99.90;;;;;;5084960;28;20620;-78
2021/12/09 08:30:38;;;;;;;33.27;12.17;;;1.40;99.90;;;;;;5079742;28;20621;-78
2021/12/09 08:33:23;;;;;;;24.47;11.30;;;1.40;99.90;;;;;;5083010;28;20654;-77
2021/12/09 08:35:51;;;;;;;31.53;11.47;;;1.50;99.90;;;;;;5085425;28;20200;-77
2021/12/09 08:38:18;;;;;;;27.93;11.67;;;1.50;99.90;;;;;;5083387;28;20319;-76
2021/12/09 08:40:47;;;;;;;34.70;12.87;;;1.50;99.90;;;;;;5083022;28;20275;-77
2021/12/09 08:43:14;;;;;;;31.00;12.80;;;1.60;99.90;;;;;;5066561;28;20195;-77
2021/12/09 08:45:41;;;;;;;33.83;12.47;;;1.60;99.90;;;;;;5081155;28;20275;-77
2021/12/09 08:48:08;;;;;;;28.23;12.93;;;1.70;99.90;;;;;;5080716;28;20273;-77
2021/12/09 08:50:36;;;;;;;29.00;12.90;;;1.70;99.90;;;;;;5088174;28;20310;-79
2021/12/09 08:53:07;;;;;;;30.33;11.60;;;1.80;99.90;;;;;;5079201;28;20213;-80
2021/12/09 08:55:35;;;;;;;26.70;12.63;;;1.90;99.90;;;;;;5081446;28;20223;-78
2021/12/09 08:58:03;;;;;;;30.67;12.70;;;1.90;99.90;;;;;;5082079;28;20240;-78
2021/12/09 09:00:32;;;;;;;26.63;11.53;;;1.90;99.90;;;;;;5077262;28;20299;-78
2021/12/09 09:02:59;;;;;;;36.57;13.90;;;2.00;99.90;;;;;;5081954;28;20304;-77
2021/12/09 09:05:28;;;;;;;36.50;12.53;;;2.00;99.90;;;;;;5076913;28;20240;-77
2021/12/09 09:07:55;;;;;;;25.87;12.03;;;2.10;99.90;;;;;;5079588;28;20796;-78
2021/12/09 09:10:25;;;;;;;28.17;12.13;;;2.10;99.90;;;;;;5080434;28;20646;-77
2021/12/09 09:12:53;;;;;;;27.70;12.67;;;2.20;99.90;;;;;;5077824;28;20207;-77
2021/12/09 09:15:24;;;;;;;39.70;14.67;;;2.20;99.90;;;;;;5083031;28;20287;-77
2021/12/09 09:17:51;;;;;;;38.20;14.13;;;2.30;99.90;;;;;;5083483;28;20228;-77
2021/12/09 09:20:22;;;;;;;40.17;14.20;;;2.40;99.90;;;;;;5086655;28;20200;-76
2021/12/09 09:22:50;;;;;;;39.73;14.97;;;2.50;99.90;;;;;;5067393;28;20331;-77
2021/12/09 09:25:20;;;;;;;44.57;14.40;;;2.60;99.90;;;;;;5077452;28;20202;-75
2021/12/09 09:27:48;;;;;;;34.87;14.50;;;2.70;99.90;;;;;;5083841;28;20226;-78
2021/12/09 09:30:18;;;;;;;43.27;14.97;;;2.80;99.90;;;;;;5089893;28;20201;-76
2021/12/09 09:32:47;;;;;;;36.77;14.90;;;2.90;99.90;;;;;;5084337;28;20213;-76
2021/12/09 09:35:15;;;;;;;35.03;15.00;;;3.00;99.90;;;;;;5081431;28;20288;-76
2021/12/09 09:37:43;;;;;;;42.53;15.57;;;3.00;99.90;;;;;;5081424;28;20323;-75
2021/12/09 09:40:14;;;;;;;30.63;14.27;;;3.10;99.90;;;;;;5079964;28;20675;-76
2021/12/09 09:45:13;;;;;;;29.40;14.83;;;3.20;99.90;;;;;;5076695;28;20696;-81
2021/12/09 09:47:40;;;;;;;27.37;13.63;;;3.30;99.90;;;;;;5099179;28;20268;-80
2021/12/09 09:50:09;;;;;;;33.57;14.57;;;3.30;99.90;;;;;;5084666;28;20195;-79
2021/12/09 09:52:37;;;;;;;31.53;15.03;;;3.40;99.90;;;;;;5091246;28;20222;-81
2021/12/09 09:55:10;;;;;;;30.87;14.80;;;3.40;99.90;;;;;;5080196;28;20259;-80
2021/12/09 09:57:37;;;;;;;30.30;14.70;;;3.40;99.90;;;;;;5061590;28;20377;-79
2021/12/09 10:00:08;;;;;;;26.50;13.30;;;3.40;99.90;;;;;;5080957;28;20200;-78
2021/12/09 10:02:35;;;;;;;28.33;13.53;;;3.50;99.90;;;;;;5084401;28;20249;-80
2021/12/09 10:05:05;;;;;;;25.77;13.47;;;3.50;99.90;;;;;;5083903;28;20231;-79
2021/12/09 10:07:33;;;;;;;28.50;14.20;;;;;;;;;;5080533;28;20584;-83
2021/12/09 10:10:02;;;;;;;24.03;12.57;;;3.60;99.90;;;;;;5084662;28;20206;-80
2021/12/09 10:12:29;;;;;;;30.80;13.83;;;3.60;99.90;;;;;;5077934;28;20215;-80
2021/12/09 10:14:56;;;;;;;27.50;12.93;;;3.70;99.90;;;;;;5079134;28;20199;-81
2021/12/09 10:17:27;;;;;;;24.73;12.27;;;3.70;99.90;;;;;;5082346;28;20247;-82
2021/12/09 10:20:09;;;;;;;25.80;12.97;;;3.70;99.90;;;;;;5083851;28;20301;-82
2021/12/09 10:22:37;;;;;;;20.53;12.17;;;3.80;99.90;;;;;;5073565;28;20208;-80
2021/12/09 10:25:17;;;;;;;31.03;12.50;;;3.80;99.90;;;;;;5080096;28;20236;-83
2021/12/09 10:27:55;;;;;;;23.70;11.70;;;3.80;99.90;;;;;;5070932;28;20241;-81
2021/12/09 10:30:23;;;;;;;19.63;11.30;;;3.80;99.90;;;;;;5086383;28;20283;-83
2021/12/09 10:32:58;;;;;;;25.80;12.57;;;3.90;99.90;;;;;;5064836;28;20611;-83
2021/12/09 10:35:25;;;;;;;30.97;12.40;;;3.90;99.90;;;;;;5065254;28;20211;-84
2021/12/09 10:37:55;;;;;;;28.20;12.10;;;4.00;99.90;;;;;;5088936;28;20206;-82
2021/12/09 10:40:30;;;;;;;29.70;12.53;;;4.00;99.90;;;;;;5067008;28;20204;-84
2021/12/09 10:43:06;;;;;;;24.73;12.20;;;4.10;99.90;;;;;;5070108;28;20196;-82
2021/12/09 10:45:38;;;;;;;28.47;11.70;;;4.10;99.90;;;;;;5085609;28;20205;-82
2021/12/09 10:48:27;;;;;;;19.07;11.63;;;4.20;99.90;;;;;;5070233;28;20375;-82
2021/12/09 10:53:45;;;;;;;23.10;12.17;;;4.20;99.90;;;;;;5082866;28;20213;-82
2021/12/09 10:56:13;;;;;;;18.90;11.67;;;4.30;99.90;;;;;;5084918;28;20238;-83
2021/12/09 10:58:45;;;;;;;23.60;12.07;;;4.20;99.90;;;;;;5070874;28;20199;-83
2021/12/09 11:01:18;;;;;;;24.60;12.47;;;4.30;99.90;;;;;;5087892;28;20655;-82
2021/12/09 11:04:04;;;;;;;27.83;13.57;;;4.30;99.90;;;;;;5068058;28;20220;-80
2021/12/09 11:06:38;;;;;;;24.23;12.40;;;4.40;99.90;;;;;;5087672;28;20654;-81
2021/12/09 11:09:08;;;;;;;22.53;11.73;;;4.40;99.90;;;;;;5086773;28;20247;-84
2021/12/09 11:11:56;;;;;;;20.30;11.70;;;4.60;99.90;;;;;;5083022;28;20250;-84
2021/12/09 11:14:27;;;;;;;26.97;12.23;;;;;;;;;;5067200;28;20254;-82
2021/12/09 11:17:03;;;;;;;25.17;11.40;;;4.70;99.90;;;;;;5085383;28;20207;-83
2021/12/09 11:19:39;;;;;;;19.77;11.70;;;4.70;99.90;;;;;;5064916;28;20204;-83
2021/12/09 11:22:08;;;;;;;21.00;12.07;;;4.60;99.90;;;;;;5058664;28;20691;-83
2021/12/09 11:24:40;;;;;;;22.87;11.37;;;4.70;99.90;;;;;;5061165;28;20293;-82
2021/12/09 11:27:26;;;;;;;23.47;11.00;;;4.70;99.90;;;;;;5071247;28;20211;-83
2021/12/09 11:29:57;;;;;;;21.03;10.60;;;4.60;99.90;;;;;;5068082;28;20215;-82
2021/12/09 11:32:48;;;;;;;20.20;10.47;;;4.60;99.90;;;;;;5089441;28;20247;-84
2021/12/09 11:35:26;;;;;;;24.47;11.53;;;4.60;99.90;;;;;;5070429;28;20639;-83
2021/12/09 11:38:05;;;;;;;24.97;11.37;;;4.70;99.90;;;;;;5069123;28;20207;-84
2021/12/09 11:40:46;;;;;;;19.50;10.97;;;4.70;99.90;;;;;;5076172;28;20231;-85
2021/12/09 11:43:23;;;;;;;26.43;10.80;;;4.70;99.90;;;;;;5063647;28;20211;-86
2021/12/09 11:45:54;;;;;;;19.23;10.93;;;4.80;99.90;;;;;;5069215;28;20216;-87
2021/12/09 11:48:21;;;;;;;19.23;11.77;;;4.70;99.90;;;;;;5064763;28;20234;-86
2021/12/09 11:50:50;;;;;;;22.07;11.40;;;4.60;99.90;;;;;;5066617;28;20243;-82
2021/12/09 11:53:21;;;;;;;24.03;11.90;;;4.70;99.90;;;;;;5086315;28;20664;-83
2021/12/09 11:56:05;;;;;;;21.40;12.00;;;4.70;99.90;;;;;;5062428;28;20229;-80
2021/12/09 11:58:40;;;;;;;22.47;10.83;;;4.80;99.90;;;;;;5063001;28;20208;-80
2021/12/09 12:13:45;;;;;;;24.73;11.73;;;5.00;99.90;;;;;;5064421;28;20289;-78
2021/12/09 12:20:45;;;;;;;24.47;11.47;;;5.00;99.90;;;;;;5065212;28;20227;-80
2021/12/09 12:33:55;;;;;;;24.40;12.43;;;5.00;99.90;;;;;;5068913;28;20624;-78
2021/12/09 12:37:09;;;;;;;20.50;11.03;;;4.90;99.90;;;;;;5069865;28;20204;-78
2021/12/09 12:42:43;;;;;;;21.87;11.90;;;4.90;99.90;;;;;;5067233;28;20200;-79
2021/12/09 12:45:15;;;;;;;27.20;11.77;;;5.00;99.90;;;;;;5065132;28;20253;-79
2021/12/09 12:47:50;;;;;;;19.63;12.23;;;5.00;99.90;;;;;;5057564;28;20315;-79
2021/12/09 12:50:18;;;;;;;18.47;11.53;;;5.10;99.90;;;;;;5063990;28;20723;-79
2021/12/09 12:52:46;;;;;;;25.03;12.50;;;5.10;99.90;;;;;;5063856;28;20301;-79
2021/12/09 12:55:18;;;;;;;27.50;11.90;;;5.20;99.90;;;;;;5068959;28;20630;-77
2021/12/09 12:57:50;;;;;;;27.63;12.57;;;5.20;99.90;;;;;;5079806;28;20214;-79
2021/12/09 13:00:29;;;;;;;23.87;11.80;;;5.20;99.90;;;;;;5086703;28;20204;-77
2021/12/09 13:09:12;;;;;;;26.00;12.87;;;5.30;99.90;;;;;;5066090;28;20338;-76
2021/12/09 13:11:54;;;;;;;22.97;12.87;;;5.30;99.90;;;;;;5082646;28;20207;-76
2021/12/09 13:14:25;;;;;;;22.17;11.07;;;5.30;99.90;;;;;;5081584;28;20237;-78
2021/12/09 13:17:04;;;;;;;22.77;12.40;;;5.40;99.90;;;;;;5072582;28;20557;-79
2021/12/09 13:19:40;;;;;;;17.77;10.93;;;5.40;99.90;;;;;;5081074;28;20212;-79
2021/12/09 13:22:10;;;;;;;18.97;11.37;;;5.40;99.90;;;;;;5082886;28;20286;-79
2021/12/09 13:24:55;;;;;;;21.43;11.57;;;5.40;99.90;;;;;;5080306;28;20759;-79
2021/12/09 13:47:20;;;;;;;19.03;11.23;;;5.60;99.90;;;;;;5085460;28;20298;-79
2021/12/09 13:49:58;;;;;;;23.33;11.47;;;5.50;99.90;;;;;;5080071;28;20229;-78
2021/12/09 13:55:06;;;;;;;19.20;10.83;;;5.50;99.90;;;;;;5075391;28;20265;-79
2021/12/09 13:57:41;;;;;;;18.67;11.20;;;5.50;99.90;;;;;;5077428;28;20778;-78
2021/12/09 14:00:26;;;;;;;21.93;13.60;;;5.50;99.90;;;;;;5076366;28;20692;-79
2021/12/09 14:02:56;;;;;;;24.37;12.33;;;5.40;99.90;;;;;;5086095;28;20253;-79